sensor_id;sensor_type;location;lat;lon;timestamp;pressure;altitude;pressure_sealevel;temperature;humidity
11343;BME280;5726;42.160;24.746;2024-02-16T00:01:31;100162.47;;;9.24;68.02
11343;BME280;5726;42.160;24.746;2024-02-16T00:03:57;100163.78;;;9.27;67.68
11343;BME280;5726;42.160;24.746;2024-02-16T00:06:22;100164.59;;;9.27;68.06
11343;BME280;5726;42.160;24.746;2024-02-16T00:08:48;100167.56;;;9.51;67.14
11343;BME280;5726;42.160;24.746;2024-02-16T00:11:13;100164.38;;;9.44;67.48
11343;BME280;5726;42.160;24.746;2024-02-16T00:13:39;100165.13;;;9.29;67.74
11343;BME280;5726;42.160;24.746;2024-02-16T00:16:04;100163.50;;;9.28;67.45
11343;BME280;5726;42.160;24.746;2024-02-16T00:18:30;100160.84;;;9.23;67.68
11343;BME280;5726;42.160;24.746;2024-02-16T00:20:55;100162.47;;;9.24;67.98
11343;BME280;5726;42.160;24.746;2024-02-16T00:23:21;100155.44;;;9.08;68.38
11343;BME280;5726;42.160;24.746;2024-02-16T00:25:48;100164.56;;;9.12;68.33
11343;BME280;5726;42.160;24.746;2024-02-16T00:28:13;100155.22;;;9.20;67.75
11343;BME280;5726;42.160;24.746;2024-02-16T00:30:39;100162.44;;;9.19;67.89
11343;BME280;5726;42.160;24.746;2024-02-16T00:33:04;100165.09;;;9.19;67.51
11343;BME280;5726;42.160;24.746;2024-02-16T00:35:30;100161.59;;;9.04;68.27
11343;BME280;5726;42.160;24.746;2024-02-16T00:38:01;100165.09;;;9.09;68.15
11343;BME280;5726;42.160;24.746;2024-02-16T00:40:27;100157.31;;;9.08;67.98
11343;BME280;5726;42.160;24.746;2024-02-16T00:42:52;100159.69;;;9.00;68.41
11343;BME280;5726;42.160;24.746;2024-02-16T00:45:18;100154.25;;;8.75;68.95
11343;BME280;5726;42.160;24.746;2024-02-16T00:47:43;100154.94;;;8.56;69.59
11343;BME280;5726;42.160;24.746;2024-02-16T00:50:11;100151.56;;;8.75;69.20
11343;BME280;5726;42.160;24.746;2024-02-16T00:52:36;100153.44;;;8.69;69.01
11343;BME280;5726;42.160;24.746;2024-02-16T00:55:04;100153.25;;;8.91;68.59
11343;BME280;5726;42.160;24.746;2024-02-16T00:57:29;100149.91;;;8.59;69.51
11343;BME280;5726;42.160;24.746;2024-02-16T00:59:55;100153.66;;;8.63;69.72
11343;BME280;5726;42.160;24.746;2024-02-16T01:02:20;100156.81;;;8.50;70.43
11343;BME280;5726;42.160;24.746;2024-02-16T01:04:47;100152.00;;;8.57;70.28
11343;BME280;5726;42.160;24.746;2024-02-16T01:07:15;100155.34;;;8.79;69.55
11343;BME280;5726;42.160;24.746;2024-02-16T01:09:41;100150.53;;;8.81;69.38
11343;BME280;5726;42.160;24.746;2024-02-16T01:12:06;100143.09;;;8.93;69.01
11343;BME280;5726;42.160;24.746;2024-02-16T01:14:32;100153.97;;;8.76;69.63
11343;BME280;5726;42.160;24.746;2024-02-16T01:16:57;100150.78;;;8.74;69.77
11343;BME280;5726;42.160;24.746;2024-02-16T01:19:23;100151.47;;;8.55;70.57
11343;BME280;5726;42.160;24.746;2024-02-16T01:21:49;100155.84;;;8.71;70.11
11343;BME280;5726;42.160;24.746;2024-02-16T01:24:18;100151.03;;;8.73;69.80
11343;BME280;5726;42.160;24.746;2024-02-16T01:26:45;100156.63;;;8.71;70.06
11343;BME280;5726;42.160;24.746;2024-02-16T01:29:10;100157.53;;;8.92;69.15
11343;BME280;5726;42.160;24.746;2024-02-16T01:31:36;100155.94;;;8.96;69.00
11343;BME280;5726;42.160;24.746;2024-02-16T01:34:02;100153.25;;;8.91;69.04
11343;BME280;5726;42.160;24.746;2024-02-16T01:36:28;100145.47;;;8.84;69.44
11343;BME280;5726;42.160;24.746;2024-02-16T01:38:53;100151.34;;;8.86;69.22
11343;BME280;5726;42.160;24.746;2024-02-16T01:41:19;100148.97;;;8.90;69.10
11343;BME280;5726;42.160;24.746;2024-02-16T01:43:45;100147.84;;;8.76;68.78
11343;BME280;5726;42.160;24.746;2024-02-16T01:46:10;100151.81;;;8.73;69.25
11343;BME280;5726;42.160;24.746;2024-02-16T01:48:36;100151.09;;;8.83;68.72
11343;BME280;5726;42.160;24.746;2024-02-16T01:51:04;100150.81;;;8.84;68.93
11343;BME280;5726;42.160;24.746;2024-02-16T01:53:32;100149.78;;;8.95;68.39
11343;BME280;5726;42.160;24.746;2024-02-16T01:55:57;100152.16;;;8.87;68.54
11343;BME280;5726;42.160;24.746;2024-02-16T01:58:23;100146.31;;;8.95;68.17
11343;BME280;5726;42.160;24.746;2024-02-16T02:00:49;100157.81;;;8.90;68.20
11343;BME280;5726;42.160;24.746;2024-02-16T02:03:14;100146.00;;;8.86;69.21
11343;BME280;5726;42.160;24.746;2024-02-16T02:05:46;100146.09;;;9.11;67.84
11343;BME280;5726;42.160;24.746;2024-02-16T02:08:12;100146.34;;;9.04;67.66
11343;BME280;5726;42.160;24.746;2024-02-16T02:10:38;100148.47;;;9.07;67.36
11343;BME280;5726;42.160;24.746;2024-02-16T02:13:03;100155.97;;;9.05;67.30
11343;BME280;5726;42.160;24.746;2024-02-16T02:15:29;100140.97;;;9.00;67.80
11343;BME280;5726;42.160;24.746;2024-02-16T02:17:54;100146.63;;;9.08;67.52
11343;BME280;5726;42.160;24.746;2024-02-16T02:20:20;100148.56;;;9.27;66.50
11343;BME280;5726;42.160;24.746;2024-02-16T02:22:45;100151.19;;;9.12;67.26
11343;BME280;5726;42.160;24.746;2024-02-16T02:25:11;100153.28;;;9.05;67.21
11343;BME280;5726;42.160;24.746;2024-02-16T02:27:37;100144.47;;;9.10;67.17
11343;BME280;5726;42.160;24.746;2024-02-16T02:30:04;100146.44;;;9.39;66.22
11343;BME280;5726;42.160;24.746;2024-02-16T02:32:30;100143.47;;;9.26;66.48
11343;BME280;5726;42.160;24.746;2024-02-16T02:34:56;100139.97;;;9.20;66.87
11343;BME280;5726;42.160;24.746;2024-02-16T02:37:21;100133.53;;;9.16;66.56
11343;BME280;5726;42.160;24.746;2024-02-16T02:39:48;100130.84;;;9.11;66.75
11343;BME280;5726;42.160;24.746;2024-02-16T02:42:13;100129.78;;;9.17;66.43
11343;BME280;5726;42.160;24.746;2024-02-16T02:44:39;100130.59;;;9.08;66.77
11343;BME280;5726;42.160;24.746;2024-02-16T02:47:05;100125.75;;;9.15;66.33
11343;BME280;5726;42.160;24.746;2024-02-16T02:49:31;100125.50;;;9.11;66.33
11343;BME280;5726;42.160;24.746;2024-02-16T02:51:58;100132.38;;;8.83;66.74
11343;BME280;5726;42.160;24.746;2024-02-16T02:54:24;100124.97;;;9.14;67.38
11343;BME280;5726;42.160;24.746;2024-02-16T02:56:49;100135.38;;;9.01;66.39
11343;BME280;5726;42.160;24.746;2024-02-16T02:59:15;100135.69;;;9.24;65.50
11343;BME280;5726;42.160;24.746;2024-02-16T03:01:40;100130.31;;;9.14;65.59
11343;BME280;5726;42.160;24.746;2024-02-16T03:04:06;100129.75;;;8.98;66.16
11343;BME280;5726;42.160;24.746;2024-02-16T03:06:31;100130.75;;;8.82;66.97
11343;BME280;5726;42.160;24.746;2024-02-16T03:08:57;100133.44;;;8.87;66.73
11343;BME280;5726;42.160;24.746;2024-02-16T03:11:23;100145.78;;;8.98;66.04
11343;BME280;5726;42.160;24.746;2024-02-16T03:13:48;100143.13;;;8.98;66.35
11343;BME280;5726;42.160;24.746;2024-02-16T03:16:14;100136.72;;;9.04;65.74
11343;BME280;5726;42.160;24.746;2024-02-16T03:18:39;100144.69;;;8.89;66.34
11343;BME280;5726;42.160;24.746;2024-02-16T03:21:05;100141.75;;;8.95;66.45
11343;BME280;5726;42.160;24.746;2024-02-16T03:23:30;100144.13;;;8.87;69.28
11343;BME280;5726;42.160;24.746;2024-02-16T03:25:56;100144.66;;;8.84;66.91
11343;BME280;5726;42.160;24.746;2024-02-16T03:28:22;100145.75;;;8.88;66.42
11343;BME280;5726;42.160;24.746;2024-02-16T03:30:47;100151.56;;;8.75;66.75
11343;BME280;5726;42.160;24.746;2024-02-16T03:33:13;100150.56;;;8.86;66.80
11343;BME280;5726;42.160;24.746;2024-02-16T03:35:38;100153.72;;;8.73;67.44
11343;BME280;5726;42.160;24.746;2024-02-16T03:38:05;100159.56;;;8.70;67.38
11343;BME280;5726;42.160;24.746;2024-02-16T03:40:31;100157.94;;;8.69;67.77
11343;BME280;5726;42.160;24.746;2024-02-16T03:42:57;100150.78;;;8.74;67.79
11343;BME280;5726;42.160;24.746;2024-02-16T03:45:23;100154.94;;;8.51;68.50
11343;BME280;5726;42.160;24.746;2024-02-16T03:47:49;100162.47;;;8.17;69.87
11343;BME280;5726;42.160;24.746;2024-02-16T03:50:17;100162.34;;;8.03;70.10
11343;BME280;5726;42.160;24.746;2024-02-16T03:52:43;100167.13;;;8.01;70.58
11343;BME280;5726;42.160;24.746;2024-02-16T03:55:08;100162.88;;;8.05;70.50
11343;BME280;5726;42.160;24.746;2024-02-16T03:57:34;100168.09;;;8.16;69.90
11343;BME280;5726;42.160;24.746;2024-02-16T03:59:59;100173.19;;;8.22;69.77
11343;BME280;5726;42.160;24.746;2024-02-16T04:02:25;100163.09;;;8.29;69.72
11343;BME280;5726;42.160;24.746;2024-02-16T04:04:51;100169.25;;;7.99;70.61
11343;BME280;5726;42.160;24.746;2024-02-16T04:07:17;100161.63;;;8.12;70.14
11343;BME280;5726;42.160;24.746;2024-02-16T04:09:42;100167.63;;;7.98;70.67
11343;BME280;5726;42.160;24.746;2024-02-16T04:12:08;100166.09;;;8.07;70.52
11343;BME280;5726;42.160;24.746;2024-02-16T04:14:34;100166.66;;;8.08;70.66
11343;BME280;5726;42.160;24.746;2024-02-16T04:17:00;100161.84;;;8.06;70.76
11343;BME280;5726;42.160;24.746;2024-02-16T04:19:26;100164.31;;;7.81;71.90
11343;BME280;5726;42.160;24.746;2024-02-16T04:21:51;100170.16;;;7.78;71.99
11343;BME280;5726;42.160;24.746;2024-02-16T04:24:17;100179.38;;;7.97;71.55
11343;BME280;5726;42.160;24.746;2024-02-16T04:26:43;100186.88;;;8.00;71.27
11343;BME280;5726;42.160;24.746;2024-02-16T04:29:09;100177.78;;;8.01;71.62
11343;BME280;5726;42.160;24.746;2024-02-16T04:31:34;100181.06;;;8.07;71.53
11343;BME280;5726;42.160;24.746;2024-02-16T04:33:59;100184.22;;;8.00;71.83
11343;BME280;5726;42.160;24.746;2024-02-16T04:36:25;100188.72;;;8.25;70.71
11343;BME280;5726;42.160;24.746;2024-02-16T04:38:51;100194.13;;;8.04;71.15
11343;BME280;5726;42.160;24.746;2024-02-16T04:41:19;100196.22;;;8.33;70.44
11343;BME280;5726;42.160;24.746;2024-02-16T04:43:45;100196.38;;;8.17;71.04
11343;BME280;5726;42.160;24.746;2024-02-16T04:46:15;100196.53;;;8.37;70.35
11343;BME280;5726;42.160;24.746;2024-02-16T04:48:41;100190.50;;;8.56;69.83
11343;BME280;5726;42.160;24.746;2024-02-16T04:51:06;100184.59;;;8.54;69.02
11343;BME280;5726;42.160;24.746;2024-02-16T04:53:32;100180.38;;;8.63;68.78
11343;BME280;5726;42.160;24.746;2024-02-16T04:55:57;100180.34;;;8.17;70.17
11343;BME280;5726;42.160;24.746;2024-02-16T04:58:23;100189.03;;;8.34;69.18
11343;BME280;5726;42.160;24.746;2024-02-16T05:00:48;100187.69;;;8.31;69.21
11343;BME280;5726;42.160;24.746;2024-02-16T05:03:14;100203.56;;;8.11;70.08
11343;BME280;5726;42.160;24.746;2024-02-16T05:05:40;100195.94;;;8.25;69.67
11343;BME280;5726;42.160;24.746;2024-02-16T05:08:06;100194.06;;;8.30;69.73
11343;BME280;5726;42.160;24.746;2024-02-16T05:10:32;100203.56;;;8.11;70.55
11343;BME280;5726;42.160;24.746;2024-02-16T05:12:57;100194.16;;;8.45;69.20
11343;BME280;5726;42.160;24.746;2024-02-16T05:15:24;100192.28;;;8.09;69.86
11343;BME280;5726;42.160;24.746;2024-02-16T05:17:51;100190.13;;;8.07;70.17
11343;BME280;5726;42.160;24.746;2024-02-16T05:20:18;100199.66;;;7.98;70.66
11343;BME280;5726;42.160;24.746;2024-02-16T05:22:45;100202.22;;;7.83;71.39
11343;BME280;5726;42.160;24.746;2024-02-16T05:25:18;100202.22;;;7.83;71.24
11343;BME280;5726;42.160;24.746;2024-02-16T05:27:44;100201.53;;;7.66;71.86
11343;BME280;5726;42.160;24.746;2024-02-16T05:30:11;100205.69;;;7.52;72.60
11343;BME280;5726;42.160;24.746;2024-02-16T05:32:40;100207.22;;;7.48;72.41
11343;BME280;5726;42.160;24.746;2024-02-16T05:35:06;100203.34;;;7.34;72.72
11343;BME280;5726;42.160;24.746;2024-02-16T05:37:47;100204.41;;;7.33;73.44
11343;BME280;5726;42.160;24.746;2024-02-16T05:40:15;100211.56;;;7.54;72.21
11343;BME280;5726;42.160;24.746;2024-02-16T05:42:47;100212.78;;;7.42;72.57
11343;BME280;5726;42.160;24.746;2024-02-16T05:45:14;100219.22;;;7.24;73.62
11343;BME280;5726;42.160;24.746;2024-02-16T05:47:40;100222.53;;;7.31;73.20
11343;BME280;5726;42.160;24.746;2024-02-16T05:50:06;100225.34;;;7.46;73.16
11343;BME280;5726;42.160;24.746;2024-02-16T05:52:32;100226.56;;;7.60;71.74
11343;BME280;5726;42.160;24.746;2024-02-16T05:54:58;100232.91;;;7.54;75.78
11343;BME280;5726;42.160;24.746;2024-02-16T05:57:23;100238.81;;;8.50;82.20
11343;BME280;5726;42.160;24.746;2024-02-16T05:59:49;100236.56;;;8.73;77.37
11343;BME280;5726;42.160;24.746;2024-02-16T06:02:15;100228.78;;;8.66;74.76
11343;BME280;5726;42.160;24.746;2024-02-16T06:04:41;100227.25;;;8.75;73.63
11343;BME280;5726;42.160;24.746;2024-02-16T06:07:07;100228.69;;;8.98;71.29
11343;BME280;5726;42.160;24.746;2024-02-16T06:09:34;100231.19;;;9.14;72.22
11343;BME280;5726;42.160;24.746;2024-02-16T06:12:04;100229.03;;;9.11;70.69
11343;BME280;5726;42.160;24.746;2024-02-16T06:14:33;100234.97;;;9.33;69.32
11343;BME280;5726;42.160;24.746;2024-02-16T06:17:00;100230.75;;;9.52;68.82
11343;BME280;5726;42.160;24.746;2024-02-16T06:19:26;100233.75;;;9.60;67.55
11343;BME280;5726;42.160;24.746;2024-02-16T06:21:53;100239.34;;;9.63;68.45
11343;BME280;5726;42.160;24.746;2024-02-16T06:24:22;100232.94;;;9.64;65.97
11343;BME280;5726;42.160;24.746;2024-02-16T06:26:48;100236.78;;;9.12;66.89
11343;BME280;5726;42.160;24.746;2024-02-16T06:29:15;100251.09;;;8.87;68.57
11343;BME280;5726;42.160;24.746;2024-02-16T06:31:40;100249.94;;;8.73;69.33
11343;BME280;5726;42.160;24.746;2024-02-16T06:34:06;100252.19;;;8.91;68.41
11343;BME280;5726;42.160;24.746;2024-02-16T06:36:31;100249.72;;;8.79;70.18
11343;BME280;5726;42.160;24.746;2024-02-16T06:38:56;100251.16;;;8.97;69.69
11343;BME280;5726;42.160;24.746;2024-02-16T06:41:22;100257.81;;;8.94;68.64
11343;BME280;5726;42.160;24.746;2024-02-16T06:43:48;100259.59;;;8.79;69.22
11343;BME280;5726;42.160;24.746;2024-02-16T06:46:14;100259.63;;;8.84;69.14
11343;BME280;5726;42.160;24.746;2024-02-16T06:48:40;100254.63;;;8.97;68.82
11343;BME280;5726;42.160;24.746;2024-02-16T06:51:05;100251.56;;;8.74;69.30
11343;BME280;5726;42.160;24.746;2024-02-16T06:53:32;100253.16;;;8.75;68.75
11343;BME280;5726;42.160;24.746;2024-02-16T06:55:58;100258.13;;;8.98;68.48
11343;BME280;5726;42.160;24.746;2024-02-16T06:58:23;100253.44;;;9.24;67.57
11343;BME280;5726;42.160;24.746;2024-02-16T07:00:49;100246.47;;;9.23;67.96
11343;BME280;5726;42.160;24.746;2024-02-16T07:03:15;100250.75;;;9.29;67.32
11343;BME280;5726;42.160;24.746;2024-02-16T07:05:40;100253.94;;;9.21;68.01
11343;BME280;5726;42.160;24.746;2024-02-16T07:08:06;100261.38;;;9.09;68.62
11343;BME280;5726;42.160;24.746;2024-02-16T07:10:33;100246.72;;;9.27;68.33
11343;BME280;5726;42.160;24.746;2024-02-16T07:12:59;100251.28;;;9.31;68.14
11343;BME280;5726;42.160;24.746;2024-02-16T07:15:24;100257.00;;;9.50;67.64
11343;BME280;5726;42.160;24.746;2024-02-16T07:17:52;100259.47;;;9.81;67.19
11343;BME280;5726;42.160;24.746;2024-02-16T07:20:18;100254.72;;;9.98;65.50
11343;BME280;5726;42.160;24.746;2024-02-16T07:22:44;100256.50;;;9.72;66.45
11343;BME280;5726;42.160;24.746;2024-02-16T07:25:11;100253.78;;;9.52;66.78
11343;BME280;5726;42.160;24.746;2024-02-16T07:27:38;100261.59;;;9.69;66.11
11343;BME280;5726;42.160;24.746;2024-02-16T07:30:04;100261.91;;;9.87;65.38
11343;BME280;5726;42.160;24.746;2024-02-16T07:32:30;100265.16;;;9.94;65.35
11343;BME280;5726;42.160;24.746;2024-02-16T07:34:55;100264.09;;;10.05;65.22
11343;BME280;5726;42.160;24.746;2024-02-16T07:37:21;100262.66;;;9.73;66.32
11343;BME280;5726;42.160;24.746;2024-02-16T07:39:46;100263.81;;;9.97;65.80
11343;BME280;5726;42.160;24.746;2024-02-16T07:42:12;100265.19;;;10.14;65.24
11343;BME280;5726;42.160;24.746;2024-02-16T07:44:38;100276.09;;;9.83;66.80
11343;BME280;5726;42.160;24.746;2024-02-16T07:47:04;100272.41;;;10.03;66.00
11343;BME280;5726;42.160;24.746;2024-02-16T07:49:30;100270.53;;;10.34;65.33
11343;BME280;5726;42.160;24.746;2024-02-16T07:51:56;100271.88;;;10.41;64.38
11343;BME280;5726;42.160;24.746;2024-02-16T07:54:23;100270.25;;;10.50;64.82
11343;BME280;5726;42.160;24.746;2024-02-16T07:56:48;100268.63;;;10.69;63.88
11343;BME280;5726;42.160;24.746;2024-02-16T07:59:14;100262.72;;;10.52;64.02
11343;BME280;5726;42.160;24.746;2024-02-16T08:01:40;100267.84;;;10.19;65.64
11343;BME280;5726;42.160;24.746;2024-02-16T08:04:06;100265.44;;;10.37;66.74
11343;BME280;5726;42.160;24.746;2024-02-16T08:06:31;100258.69;;;10.69;71.13
11343;BME280;5726;42.160;24.746;2024-02-16T08:08:57;100262.91;;;11.05;66.80
11343;BME280;5726;42.160;24.746;2024-02-16T08:11:23;100257.69;;;11.33;67.31
11343;BME280;5726;42.160;24.746;2024-02-16T08:13:49;100262.75;;;11.49;64.85
11343;BME280;5726;42.160;24.746;2024-02-16T08:16:14;100264.34;;;11.55;61.60
11343;BME280;5726;42.160;24.746;2024-02-16T08:18:40;100265.72;;;11.38;61.93
11343;BME280;5726;42.160;24.746;2024-02-16T08:21:05;100266.94;;;11.07;62.27
11343;BME280;5726;42.160;24.746;2024-02-16T08:23:31;100262.59;;;11.11;61.87
11343;BME280;5726;42.160;24.746;2024-02-16T08:25:57;100262.59;;;11.21;62.25
11343;BME280;5726;42.160;24.746;2024-02-16T08:28:23;100262.50;;;11.46;61.18
11343;BME280;5726;42.160;24.746;2024-02-16T08:30:50;100263.09;;;11.23;61.62
11343;BME280;5726;42.160;24.746;2024-02-16T08:33:15;100268.81;;;11.12;62.04
11343;BME280;5726;42.160;24.746;2024-02-16T08:35:40;100258.78;;;11.32;61.75
11343;BME280;5726;42.160;24.746;2024-02-16T08:38:06;100266.19;;;11.60;61.91
11343;BME280;5726;42.160;24.746;2024-02-16T08:40:37;100275.50;;;12.15;63.42
11343;BME280;5726;42.160;24.746;2024-02-16T08:43:06;100272.00;;;12.53;61.59
11343;BME280;5726;42.160;24.746;2024-02-16T08:45:34;100274.44;;;12.78;59.60
11343;BME280;5726;42.160;24.746;2024-02-16T08:48:01;100261.44;;;12.89;60.30
11343;BME280;5726;42.160;24.746;2024-02-16T08:50:29;100267.84;;;13.40;60.19
11343;BME280;5726;42.160;24.746;2024-02-16T08:52:55;100264.63;;;13.80;58.65
11343;BME280;5726;42.160;24.746;2024-02-16T08:55:20;100266.28;;;13.76;56.74
11343;BME280;5726;42.160;24.746;2024-02-16T08:57:46;100263.69;;;13.71;59.17
11343;BME280;5726;42.160;24.746;2024-02-16T09:00:12;100264.19;;;13.73;56.52
11343;BME280;5726;42.160;24.746;2024-02-16T09:02:38;100270.81;;;13.38;56.40
11343;BME280;5726;42.160;24.746;2024-02-16T09:05:04;100268.44;;;12.90;59.30
11343;BME280;5726;42.160;24.746;2024-02-16T09:07:30;100268.91;;;12.97;58.03
11343;BME280;5726;42.160;24.746;2024-02-16T09:09:56;100269.13;;;13.01;57.78
11343;BME280;5726;42.160;24.746;2024-02-16T09:12:22;100264.38;;;12.93;59.04
11343;BME280;5726;42.160;24.746;2024-02-16T09:14:47;100272.25;;;13.31;59.27
11343;BME280;5726;42.160;24.746;2024-02-16T09:17:13;100268.13;;;13.62;58.84
11343;BME280;5726;42.160;24.746;2024-02-16T09:19:40;100266.38;;;13.71;58.65
11343;BME280;5726;42.160;24.746;2024-02-16T09:22:05;100257.00;;;13.86;57.42
11343;BME280;5726;42.160;24.746;2024-02-16T09:24:32;100258.28;;;13.89;57.54
11343;BME280;5726;42.160;24.746;2024-02-16T09:26:58;100263.06;;;14.15;56.42
11343;BME280;5726;42.160;24.746;2024-02-16T09:29:28;100254.50;;;14.27;56.02
11343;BME280;5726;42.160;24.746;2024-02-16T09:31:54;100261.03;;;14.39;55.56
11343;BME280;5726;42.160;24.746;2024-02-16T09:34:19;100253.88;;;14.16;55.18
11343;BME280;5726;42.160;24.746;2024-02-16T09:36:45;100254.53;;;14.08;56.31
11343;BME280;5726;42.160;24.746;2024-02-16T09:39:10;100249.66;;;14.42;54.98
11343;BME280;5726;42.160;24.746;2024-02-16T09:41:36;100246.94;;;14.74;55.16
11343;BME280;5726;42.160;24.746;2024-02-16T09:44:03;100248.03;;;14.73;54.54
11343;BME280;5726;42.160;24.746;2024-02-16T09:46:30;100241.25;;;14.88;54.94
11343;BME280;5726;42.160;24.746;2024-02-16T09:48:56;100240.50;;;15.28;52.49
11343;BME280;5726;42.160;24.746;2024-02-16T09:51:24;100250.41;;;15.19;53.84
11343;BME280;5726;42.160;24.746;2024-02-16T09:53:50;100232.09;;;15.30;51.24
11343;BME280;5726;42.160;24.746;2024-02-16T09:56:21;100240.78;;;15.00;52.94
11343;BME280;5726;42.160;24.746;2024-02-16T09:58:47;100232.25;;;14.93;53.28
11343;BME280;5726;42.160;24.746;2024-02-16T10:01:19;100235.41;;;15.27;52.44
11343;BME280;5726;42.160;24.746;2024-02-16T10:03:48;100230.28;;;15.12;52.08
11343;BME280;5726;42.160;24.746;2024-02-16T10:06:15;100224.75;;;14.77;53.00
11343;BME280;5726;42.160;24.746;2024-02-16T10:08:48;100217.47;;;14.90;50.71
11343;BME280;5726;42.160;24.746;2024-02-16T10:11:15;100211.97;;;14.82;51.44
11343;BME280;5726;42.160;24.746;2024-02-16T10:13:41;100216.56;;;14.95;51.90
11343;BME280;5726;42.160;24.746;2024-02-16T10:16:08;100211.88;;;15.27;51.16
11343;BME280;5726;42.160;24.746;2024-02-16T10:18:37;100203.34;;;15.33;50.60
11343;BME280;5726;42.160;24.746;2024-02-16T10:21:04;100201.69;;;15.24;50.88
11343;BME280;5726;42.160;24.746;2024-02-16T10:23:30;100199.13;;;15.41;50.52
11343;BME280;5726;42.160;24.746;2024-02-16T10:25:57;100197.34;;;15.23;50.86
11343;BME280;5726;42.160;24.746;2024-02-16T10:28:24;100196.16;;;15.29;50.79
11343;BME280;5726;42.160;24.746;2024-02-16T10:30:58;100198.34;;;15.00;50.68
11343;BME280;5726;42.160;24.746;2024-02-16T10:33:25;100199.97;;;15.01;49.93
11343;BME280;5726;42.160;24.746;2024-02-16T10:35:55;100194.25;;;15.16;49.66
11343;BME280;5726;42.160;24.746;2024-02-16T10:38:22;100198.75;;;15.07;50.18
11343;BME280;5726;42.160;24.746;2024-02-16T10:40:49;100194.88;;;15.27;49.04
11343;BME280;5726;42.160;24.746;2024-02-16T10:43:17;100190.63;;;15.47;47.80
11343;BME280;5726;42.160;24.746;2024-02-16T10:45:43;100179.94;;;15.29;49.55
11343;BME280;5726;42.160;24.746;2024-02-16T10:48:11;100190.66;;;15.07;50.47
11343;BME280;5726;42.160;24.746;2024-02-16T10:50:37;100179.13;;;15.15;48.33
11343;BME280;5726;42.160;24.746;2024-02-16T10:53:26;100179.97;;;15.16;48.54
11343;BME280;5726;42.160;24.746;2024-02-16T10:55:57;100183.47;;;15.30;49.13
11343;BME280;5726;42.160;24.746;2024-02-16T10:58:24;100172.72;;;15.38;49.38
11343;BME280;5726;42.160;24.746;2024-02-16T11:00:53;100169.97;;;15.30;50.15
11343;BME280;5726;42.160;24.746;2024-02-16T11:03:26;100168.72;;;15.49;49.10
11343;BME280;5726;42.160;24.746;2024-02-16T11:05:53;100173.91;;;15.45;48.95
11343;BME280;5726;42.160;24.746;2024-02-16T11:08:21;100171.53;;;15.30;49.85
11343;BME280;5726;42.160;24.746;2024-02-16T11:11:00;100173.00;;;15.50;49.49
11343;BME280;5726;42.160;24.746;2024-02-16T11:13:28;100166.75;;;15.14;49.43
11343;BME280;5726;42.160;24.746;2024-02-16T11:16:11;100165.13;;;15.40;49.91
11343;BME280;5726;42.160;24.746;2024-02-16T11:18:42;100160.22;;;15.42;49.58
11343;BME280;5726;42.160;24.746;2024-02-16T11:21:12;100152.09;;;15.42;49.60
11343;BME280;5726;42.160;24.746;2024-02-16T11:23:39;100155.13;;;15.40;49.71
11343;BME280;5726;42.160;24.746;2024-02-16T11:26:09;100153.72;;;15.65;48.91
11343;BME280;5726;42.160;24.746;2024-02-16T11:28:37;100155.75;;;15.24;49.31
11343;BME280;5726;42.160;24.746;2024-02-16T11:31:03;100153.72;;;15.43;49.52
11343;BME280;5726;42.160;24.746;2024-02-16T11:33:30;100152.03;;;15.69;49.58
11343;BME280;5726;42.160;24.746;2024-02-16T11:35:57;100151.81;;;16.22;47.65
11343;BME280;5726;42.160;24.746;2024-02-16T11:38:23;100149.31;;;16.34;47.20
11343;BME280;5726;42.160;24.746;2024-02-16T11:40:56;100143.28;;;16.37;47.54
11343;BME280;5726;42.160;24.746;2024-02-16T11:43:23;100151.34;;;16.28;47.44
11343;BME280;5726;42.160;24.746;2024-02-16T11:45:49;100145.78;;;16.25;48.06
11343;BME280;5726;42.160;24.746;2024-02-16T11:48:33;100142.31;;;16.33;47.64
11343;BME280;5726;42.160;24.746;2024-02-16T11:51:01;100137.25;;;16.40;47.34
11343;BME280;5726;42.160;24.746;2024-02-16T11:53:28;100141.94;;;16.56;46.17
11343;BME280;5726;42.160;24.746;2024-02-16T11:55:53;100144.53;;;16.31;46.86
11343;BME280;5726;42.160;24.746;2024-02-16T11:58:20;100141.69;;;16.36;46.88
11343;BME280;5726;42.160;24.746;2024-02-16T12:00:46;100138.47;;;16.56;46.62
11343;BME280;5726;42.160;24.746;2024-02-16T12:03:23;100140.84;;;16.57;46.97
11343;BME280;5726;42.160;24.746;2024-02-16T12:05:53;100128.59;;;16.60;46.63
11343;BME280;5726;42.160;24.746;2024-02-16T12:08:19;100128.88;;;16.88;45.57
11343;BME280;5726;42.160;24.746;2024-02-16T12:10:49;100124.63;;;16.66;46.52
11343;BME280;5726;42.160;24.746;2024-02-16T12:13:20;100131.06;;;16.39;46.90
11343;BME280;5726;42.160;24.746;2024-02-16T12:15:47;100125.53;;;16.53;46.88
11343;BME280;5726;42.160;24.746;2024-02-16T12:18:23;100121.19;;;16.43;46.78
11343;BME280;5726;42.160;24.746;2024-02-16T12:21:03;100113.72;;;16.49;46.41
11343;BME280;5726;42.160;24.746;2024-02-16T12:23:29;100119.41;;;16.39;46.99
11343;BME280;5726;42.160;24.746;2024-02-16T12:26:02;100117.31;;;16.66;46.52
11343;BME280;5726;42.160;24.746;2024-02-16T12:28:29;100120.94;;;16.23;47.43
11343;BME280;5726;42.160;24.746;2024-02-16T12:30:57;100118.22;;;16.23;47.61
11343;BME280;5726;42.160;24.746;2024-02-16T12:33:23;100115.69;;;16.27;47.42
11343;BME280;5726;42.160;24.746;2024-02-16T12:35:49;100111.88;;;16.27;47.27
11343;BME280;5726;42.160;24.746;2024-02-16T12:38:15;100115.25;;;16.33;47.14
11343;BME280;5726;42.160;24.746;2024-02-16T12:40:50;100113.28;;;16.25;47.23
11343;BME280;5726;42.160;24.746;2024-02-16T12:43:16;100113.72;;;16.19;47.60
11343;BME280;5726;42.160;24.746;2024-02-16T12:45:41;100112.72;;;16.15;47.63
11343;BME280;5726;42.160;24.746;2024-02-16T12:48:07;100108.00;;;16.20;47.58
11343;BME280;5726;42.160;24.746;2024-02-16T12:50:35;100117.53;;;16.48;46.96
11343;BME280;5726;42.160;24.746;2024-02-16T12:53:02;100114.97;;;16.43;47.17